Time;durP1;ratioP1;P1;durP2;ratioP2;P2;SDS_P1;SDS_P2;PMS_P1;PMS_P2;Temp;Humidity;BMP_temperature;BMP_pressure;BME280_temperature;BME280_humidity;BME280_pressure;Samples;Min_cycle;Max_cycle;Signal;HPM_P1;HPM_P2
2023/09/08 00:02:05;;;;;;;6.60;6.00;;;19.60;99.90;;;;;;4975087;28;20249;-68
2023/09/08 00:04:32;;;;;;;6.90;6.20;;;19.70;99.90;;;;;;4975237;28;20252;-70
2023/09/08 00:06:58;;;;;;;6.80;6.20;;;19.60;99.90;;;;;;4974598;28;20692;-68
2023/09/08 00:09:24;;;;;;;6.80;6.00;;;19.60;99.90;;;;;;4975128;28;20500;-69
2023/09/08 00:11:49;;;;;;;6.80;6.10;;;19.50;99.90;;;;;;4975195;28;20543;-70
2023/09/08 00:14:15;;;;;;;7.53;6.83;;;19.40;99.90;;;;;;4975093;28;20169;-71
2023/09/08 00:16:42;;;;;;;6.70;5.93;;;19.40;99.90;;;;;;4974107;28;20614;-71
2023/09/08 00:19:08;;;;;;;6.40;5.80;;;19.30;99.90;;;;;;4975214;28;20162;-69
2023/09/08 00:21:34;;;;;;;8.53;6.73;;;19.30;99.90;;;;;;4974855;28;20416;-70
2023/09/08 00:24:00;;;;;;;6.83;6.17;;;19.30;99.90;;;;;;4975040;28;20773;-71
2023/09/08 00:26:26;;;;;;;7.73;6.90;;;19.30;99.90;;;;;;4974746;28;20684;-71
2023/09/08 00:28:52;;;;;;;6.93;6.33;;;19.40;99.90;;;;;;4974479;28;20446;-69
2023/09/08 00:31:17;;;;;;;6.30;5.70;;;19.40;99.90;;;;;;4974224;28;20193;-70
2023/09/08 00:33:43;;;;;;;6.60;5.77;;;19.40;99.90;;;;;;4974604;28;20181;-69
2023/09/08 00:36:09;;;;;;;6.83;6.23;;;19.40;99.90;;;;;;4973820;28;20283;-70
2023/09/08 00:38:35;;;;;;;10.63;6.57;;;19.40;99.90;;;;;;4972599;28;20894;-70
2023/09/08 00:41:01;;;;;;;6.70;5.90;;;19.30;99.90;;;;;;4974315;28;20539;-70
2023/09/08 00:43:26;;;;;;;7.10;6.50;;;19.30;99.90;;;;;;4974589;28;20319;-70
2023/09/08 00:45:54;;;;;;;8.03;6.60;;;19.20;99.90;;;;;;4973925;28;20228;-69
2023/09/08 00:48:20;;;;;;;7.30;6.70;;;19.20;99.90;;;;;;4972852;28;20645;-70
2023/09/08 00:50:46;;;;;;;6.83;6.23;;;19.20;99.90;;;;;;4974401;28;20419;-70
2023/09/08 00:53:12;;;;;;;6.90;6.30;;;19.20;99.90;;;;;;4975010;28;20178;-70
2023/09/08 00:55:40;;;;;;;6.67;6.07;;;19.20;99.90;;;;;;4974292;28;20197;-71
2023/09/08 00:58:05;;;;;;;7.63;6.93;;;19.20;99.90;;;;;;4973940;28;20847;-71
2023/09/08 01:00:32;;;;;;;7.17;6.47;;;19.20;99.90;;;;;;4973971;28;20409;-70
2023/09/08 01:02:58;;;;;;;7.13;6.43;;;19.10;99.90;;;;;;4973785;28;20173;-69
2023/09/08 01:05:24;;;;;;;6.60;5.87;;;19.10;99.90;;;;;;4973858;28;20475;-69
2023/09/08 01:07:52;;;;;;;6.97;6.27;;;19.10;99.90;;;;;;4973701;28;20250;-69
2023/09/08 01:10:17;;;;;;;7.47;6.80;;;19.10;99.90;;;;;;4973982;28;20161;-70
2023/09/08 01:12:43;;;;;;;6.83;6.23;;;19.10;99.90;;;;;;4973785;28;20571;-70
2023/09/08 01:15:09;;;;;;;7.63;6.83;;;19.10;99.90;;;;;;4973438;28;20679;-70
2023/09/08 01:17:35;;;;;;;8.60;6.53;;;19.00;99.90;;;;;;4973650;28;20186;-70
2023/09/08 01:20:08;;;;;;;6.37;5.77;;;19.00;99.90;;;;;;4974138;28;20248;-71
2023/09/08 01:23:08;;;;;;;7.43;6.70;;;19.00;99.90;;;;;;4973576;28;20382;-69
2023/09/08 01:25:38;;;;;;;7.33;6.50;;;19.00;99.90;;;;;;4973382;28;20397;-71
2023/09/08 01:28:05;;;;;;;6.40;5.90;;;18.90;99.90;;;;;;4973696;28;20444;-70
2023/09/08 01:30:32;;;;;;;7.20;6.50;;;18.80;99.90;;;;;;4973769;28;20756;-71
2023/09/08 01:32:59;;;;;;;7.43;6.73;;;18.70;99.90;;;;;;4972599;28;20804;-71
2023/09/08 01:35:25;;;;;;;7.97;7.27;;;18.70;99.90;;;;;;4973475;28;20934;-71
2023/09/08 01:37:50;;;;;;;7.13;6.47;;;18.60;99.90;;;;;;4973607;28;20417;-70
2023/09/08 01:40:16;;;;;;;6.80;6.20;;;18.60;99.90;;;;;;4973287;28;20232;-69
2023/09/08 01:42:42;;;;;;;8.07;7.40;;;18.60;99.90;;;;;;4973475;28;20166;-70
2023/09/08 01:45:08;;;;;;;6.70;6.10;;;18.60;99.90;;;;;;4973372;28;20181;-68
2023/09/08 01:47:34;;;;;;;7.20;6.60;;;18.50;99.90;;;;;;4972309;28;20243;-70
2023/09/08 01:50:01;;;;;;;6.37;5.73;;;18.50;99.90;;;;;;4973047;28;20401;-70
2023/09/08 01:52:27;;;;;;;6.63;5.93;;;18.60;99.90;;;;;;4973255;28;20424;-70
2023/09/08 01:54:52;;;;;;;9.97;7.60;;;18.50;99.90;;;;;;4972975;28;20409;-70
2023/09/08 01:57:18;;;;;;;7.00;6.30;;;18.60;99.90;;;;;;5004762;23;20491;-70
2023/09/08 01:59:47;;;;;;;8.90;6.57;;;18.60;99.90;;;;;;4994142;28;20218;-70
2023/09/08 02:02:13;;;;;;;7.50;6.83;;;18.60;99.90;;;;;;4993576;28;20458;-70
2023/09/08 02:04:39;;;;;;;6.30;5.80;;;18.60;99.90;;;;;;4993877;28;20479;-70
2023/09/08 02:07:04;;;;;;;6.80;6.10;;;18.60;99.90;;;;;;4993794;28;20196;-70
2023/09/08 02:09:32;;;;;;;7.30;6.60;;;18.50;99.90;;;;;;4994234;28;20175;-70
2023/09/08 02:11:57;;;;;;;8.00;7.27;;;18.40;99.90;;;;;;4993335;28;20173;-70
2023/09/08 02:14:23;;;;;;;7.23;6.53;;;18.40;99.90;;;;;;4993796;28;20411;-70
2023/09/08 02:16:48;;;;;;;7.43;6.83;;;18.40;99.90;;;;;;4993186;28;20205;-70
2023/09/08 02:19:14;;;;;;;6.90;6.20;;;18.30;99.90;;;;;;4993163;28;20251;-70
2023/09/08 02:21:39;;;;;;;7.30;6.60;;;18.40;99.90;;;;;;4991968;28;20227;-71
2023/09/08 02:24:05;;;;;;;7.73;6.93;;;18.30;99.90;;;;;;4993623;28;20169;-70
2023/09/08 02:26:33;;;;;;;7.97;7.17;;;18.20;99.90;;;;;;4993952;28;20173;-70
2023/09/08 02:28:59;;;;;;;7.70;7.00;;;18.20;99.90;;;;;;4993422;28;20686;-70
2023/09/08 02:31:26;;;;;;;7.57;6.80;;;18.20;99.90;;;;;;4993500;28;20416;-71
2023/09/08 02:33:51;;;;;;;7.50;6.67;;;18.20;99.90;;;;;;4993540;28;20494;-70
2023/09/08 02:36:17;;;;;;;6.93;6.23;;;18.30;99.90;;;;;;4993487;28;20551;-70
2023/09/08 02:38:42;;;;;;;6.97;6.47;;;18.30;99.90;;;;;;4993356;28;20220;-70
2023/09/08 02:41:08;;;;;;;9.07;8.03;;;18.30;99.90;;;;;;4993125;28;20224;-70
2023/09/08 02:43:34;;;;;;;9.03;6.83;;;18.30;99.90;;;;;;4995447;28;20203;-72
2023/09/08 02:45:59;;;;;;;8.70;7.10;;;18.20;99.90;;;;;;4995602;28;20165;-71
2023/09/08 02:48:25;;;;;;;8.20;7.50;;;18.10;99.90;;;;;;4993152;28;20207;-72
2023/09/08 02:50:50;;;;;;;8.00;6.87;;;18.10;99.90;;;;;;4991833;28;20195;-71
2023/09/08 02:53:16;;;;;;;7.73;6.67;;;18.00;99.90;;;;;;4993650;28;20183;-72
2023/09/08 02:55:41;;;;;;;7.23;6.63;;;18.00;99.90;;;;;;4993093;28;20549;-70
2023/09/08 02:58:07;;;;;;;7.67;6.97;;;18.00;99.90;;;;;;4993384;28;20212;-72
2023/09/08 03:00:33;;;;;;;7.60;6.90;;;17.90;99.90;;;;;;4995213;28;20165;-71
2023/09/08 03:02:58;;;;;;;9.00;7.60;;;17.90;99.90;;;;;;4997068;28;20168;-70
2023/09/08 03:05:24;;;;;;;7.53;6.40;;;17.90;99.90;;;;;;4997106;28;20255;-71
2023/09/08 03:07:49;;;;;;;8.00;7.20;;;17.90;99.90;;;;;;4997173;28;20238;-71
2023/09/08 03:10:15;;;;;;;8.37;7.57;;;17.90;99.90;;;;;;4996612;28;20188;-71
2023/09/08 03:12:41;;;;;;;7.37;6.77;;;18.00;99.90;;;;;;4997085;28;20199;-71
2023/09/08 03:15:07;;;;;;;7.63;6.90;;;18.10;99.90;;;;;;4995694;28;20981;-71
2023/09/08 03:17:34;;;;;;;7.80;7.20;;;18.00;99.90;;;;;;4997115;28;20713;-72
2023/09/08 03:19:59;;;;;;;8.30;7.30;;;18.00;99.90;;;;;;4996851;28;20547;-72
2023/09/08 03:22:25;;;;;;;7.70;6.53;;;18.00;99.90;;;;;;4996931;28;20518;-71
2023/09/08 03:24:51;;;;;;;7.60;7.00;;;18.00;99.90;;;;;;4996605;28;20168;-71
2023/09/08 03:27:16;;;;;;;8.63;7.73;;;17.90;99.90;;;;;;4996945;28;20192;-72
2023/09/08 03:29:42;;;;;;;7.63;6.93;;;17.90;99.90;;;;;;4996989;28;20169;-72
2023/09/08 03:32:07;;;;;;;7.63;6.93;;;17.80;99.90;;;;;;4996774;28;20180;-72
2023/09/08 03:34:33;;;;;;;8.50;7.67;;;17.90;99.90;;;;;;4994902;28;20193;-71
2023/09/08 03:36:59;;;;;;;8.47;7.70;;;17.90;99.90;;;;;;4995342;28;20207;-72
2023/09/08 03:39:24;;;;;;;7.40;6.27;;;17.90;99.90;;;;;;4996818;28;20408;-72
2023/09/08 03:41:50;;;;;;;8.20;7.40;;;17.90;99.90;;;;;;4997072;28;20169;-72
2023/09/08 03:44:15;;;;;;;7.97;7.17;;;17.90;99.90;;;;;;4996594;28;20165;-72
2023/09/08 03:46:41;;;;;;;6.97;6.37;;;18.00;99.90;;;;;;4996391;28;20201;-72
2023/09/08 03:49:08;;;;;;;6.63;6.03;;;17.90;99.90;;;;;;4996460;28;20610;-71
2023/09/08 03:51:33;;;;;;;8.40;7.60;;;17.90;99.90;;;;;;4996741;28;20597;-72
2023/09/08 03:53:59;;;;;;;7.80;7.20;;;17.80;99.90;;;;;;4996676;28;20415;-72
2023/09/08 03:56:24;;;;;;;7.60;6.80;;;17.80;99.90;;;;;;4996360;28;20627;-72
2023/09/08 03:58:50;;;;;;;9.57;7.00;;;17.70;99.90;;;;;;4996407;28;20252;-72
2023/09/08 04:01:16;;;;;;;7.97;7.27;;;17.70;99.90;;;;;;4996102;28;20192;-72
2023/09/08 04:03:41;;;;;;;7.60;6.80;;;17.60;99.90;;;;;;4994789;28;20169;-71
2023/09/08 04:06:09;;;;;;;7.73;7.03;;;17.60;99.90;;;;;;4995493;28;20181;-72
2023/09/08 04:08:34;;;;;;;7.33;6.63;;;17.70;99.90;;;;;;4994803;28;20547;-72
2023/09/08 04:11:00;;;;;;;7.90;7.23;;;17.70;99.90;;;;;;4996187;28;20419;-71
2023/09/08 04:13:25;;;;;;;7.70;7.00;;;17.80;99.90;;;;;;4994944;28;20168;-72
2023/09/08 04:15:51;;;;;;;7.13;6.53;;;17.90;99.90;;;;;;4996054;28;20200;-70
2023/09/08 04:18:16;;;;;;;8.07;7.17;;;17.90;99.90;;;;;;4995803;28;20196;-71
2023/09/08 04:20:42;;;;;;;7.83;7.07;;;17.80;99.90;;;;;;4995798;28;20204;-71
2023/09/08 04:23:07;;;;;;;7.90;7.20;;;17.70;99.90;;;;;;4995807;28;20161;-71
2023/09/08 04:25:33;;;;;;;8.13;7.33;;;17.70;99.90;;;;;;4995941;28;20185;-71
2023/09/08 04:27:58;;;;;;;8.27;7.47;;;17.60;99.90;;;;;;4995887;28;20603;-71
2023/09/08 04:30:24;;;;;;;8.40;7.70;;;17.70;99.90;;;;;;4995646;28;20259;-70
2023/09/08 04:32:49;;;;;;;13.07;7.80;;;17.70;99.90;;;;;;4995354;28;20227;-71
2023/09/08 04:35:15;;;;;;;8.10;7.40;;;17.60;99.90;;;;;;4995776;28;20208;-71
2023/09/08 04:37:40;;;;;;;8.67;7.90;;;17.60;99.90;;;;;;4995435;28;20188;-71
2023/09/08 04:40:07;;;;;;;7.60;6.90;;;17.50;99.90;;;;;;4993205;28;20187;-71
2023/09/08 04:42:33;;;;;;;8.63;7.83;;;17.50;99.90;;;;;;4992382;28;20172;-71
2023/09/08 04:44:58;;;;;;;7.57;6.80;;;17.50;99.90;;;;;;4990574;28;20427;-72
2023/09/08 04:47:24;;;;;;;7.43;6.73;;;17.60;99.90;;;;;;4985901;28;20228;-73
2023/09/08 04:49:49;;;;;;;7.60;6.90;;;17.50;99.90;;;;;;4986172;28;20177;-72
2023/09/08 04:52:15;;;;;;;8.03;7.33;;;17.50;99.90;;;;;;4986590;28;20252;-71
2023/09/08 04:54:40;;;;;;;8.87;7.70;;;17.50;99.90;;;;;;4992143;28;20187;-71
2023/09/08 04:57:06;;;;;;;8.03;7.23;;;17.50;99.90;;;;;;4993961;28;20204;-71
2023/09/08 04:59:32;;;;;;;9.17;7.07;;;17.50;99.90;;;;;;4995180;28;20234;-71
2023/09/08 05:01:58;;;;;;;7.93;7.07;;;17.50;99.90;;;;;;4995148;28;20173;-71
2023/09/08 05:04:23;;;;;;;8.70;7.87;;;17.40;99.90;;;;;;4994803;28;20428;-71
2023/09/08 05:06:49;;;;;;;8.80;8.00;;;17.40;99.90;;;;;;4995044;28;20289;-71
2023/09/08 05:09:15;;;;;;;7.80;7.00;;;17.40;99.90;;;;;;4994972;28;20177;-71
2023/09/08 05:11:41;;;;;;;8.47;7.77;;;17.50;99.90;;;;;;4995218;28;20251;-71
2023/09/08 05:14:06;;;;;;;8.53;7.63;;;17.50;99.90;;;;;;4995180;28;20336;-71
2023/09/08 05:16:45;;;;;;;9.23;8.07;;;17.50;99.90;;;;;;4994733;28;20538;-71
2023/09/08 05:19:12;;;;;;;8.00;7.17;;;17.50;99.90;;;;;;4995142;28;20628;-71
2023/09/08 05:21:37;;;;;;;8.37;7.47;;;17.50;99.90;;;;;;4994499;28;20416;-70
2023/09/08 05:24:03;;;;;;;8.70;7.80;;;17.50;99.90;;;;;;4994198;28;20459;-71
2023/09/08 05:26:29;;;;;;;9.47;8.50;;;17.50;99.90;;;;;;4994574;28;20643;-70
2023/09/08 05:28:54;;;;;;;8.37;7.63;;;17.50;99.90;;;;;;4994289;28;20420;-73
2023/09/08 05:31:20;;;;;;;8.03;7.33;;;17.50;99.90;;;;;;4994833;28;20199;-71
2023/09/08 05:33:46;;;;;;;8.60;7.80;;;17.60;99.90;;;;;;4994250;28;20181;-70
2023/09/08 05:36:11;;;;;;;7.33;6.63;;;17.60;99.90;;;;;;4994301;28;20196;-71
2023/09/08 05:38:37;;;;;;;8.77;7.97;;;17.60;99.90;;;;;;4994773;28;20188;-71
2023/09/08 05:41:02;;;;;;;8.67;6.87;;;17.60;99.90;;;;;;4995068;28;20667;-71
2023/09/08 05:43:29;;;;;;;8.50;7.60;;;17.60;99.90;;;;;;4994650;28;20287;-71
2023/09/08 05:45:54;;;;;;;8.23;7.43;;;17.60;99.90;;;;;;4995164;28;20448;-70
2023/09/08 05:48:20;;;;;;;8.40;7.07;;;17.70;99.90;;;;;;4993847;28;20196;-70
2023/09/08 05:50:46;;;;;;;9.70;8.10;;;17.70;99.90;;;;;;4993671;28;20190;-72
2023/09/08 05:53:11;;;;;;;8.23;7.53;;;17.80;99.90;;;;;;4993773;28;20631;-70
2023/09/08 05:55:37;;;;;;;7.70;7.00;;;17.80;99.90;;;;;;4992527;28;20212;-72
2023/09/08 05:58:02;;;;;;;10.07;8.30;;;17.90;99.90;;;;;;4993159;28;20924;-72
2023/09/08 06:00:28;;;;;;;7.90;7.20;;;17.90;99.90;;;;;;4993787;28;20180;-71
2023/09/08 06:02:53;;;;;;;8.33;7.63;;;18.10;99.90;;;;;;4993708;28;20547;-71
2023/09/08 06:05:19;;;;;;;9.03;7.00;;;18.10;99.90;;;;;;4984915;28;20643;-72
2023/09/08 06:07:44;;;;;;;9.20;8.30;;;18.20;99.90;;;;;;4984116;28;20214;-71
2023/09/08 06:10:10;;;;;;;8.00;7.30;;;18.20;99.90;;;;;;4984780;28;20231;-72
2023/09/08 06:12:35;;;;;;;8.47;7.13;;;18.20;99.90;;;;;;4984192;28;20238;-72
2023/09/08 06:15:03;;;;;;;10.10;8.20;;;18.20;99.90;;;;;;4984341;28;20211;-72
2023/09/08 06:17:28;;;;;;;9.37;8.37;;;18.20;99.90;;;;;;4984011;28;20586;-70
2023/09/08 06:19:54;;;;;;;8.73;7.83;;;18.30;99.90;;;;;;4984073;28;20419;-69
2023/09/08 06:22:19;;;;;;;8.60;7.80;;;18.30;99.90;;;;;;4984017;28;20193;-72
2023/09/08 06:24:45;;;;;;;8.70;7.87;;;18.40;99.90;;;;;;4984193;28;20242;-72
2023/09/08 06:27:11;;;;;;;10.40;8.27;;;18.40;99.90;;;;;;4984005;28;20212;-72
2023/09/08 06:29:38;;;;;;;8.43;7.63;;;18.50;99.90;;;;;;4984091;28;20271;-71
2023/09/08 06:32:04;;;;;;;11.07;8.93;;;18.60;99.90;;;;;;4983830;28;20447;-72
2023/09/08 06:34:29;;;;;;;9.23;8.13;;;18.80;99.90;;;;;;4983390;28;20471;-72
2023/09/08 06:36:55;;;;;;;9.17;8.27;;;18.90;99.90;;;;;;4982455;28;20891;-72
2023/09/08 06:39:20;;;;;;;8.87;7.97;;;18.90;99.90;;;;;;4983913;28;20619;-71
2023/09/08 06:41:46;;;;;;;8.80;7.37;;;19.10;99.90;;;;;;4984090;28;20573;-71
2023/09/08 06:44:11;;;;;;;9.80;8.60;;;19.20;99.90;;;;;;4984923;28;20187;-72
2023/09/08 06:46:37;;;;;;;8.67;7.87;;;19.30;99.90;;;;;;4993302;28;20176;-72
2023/09/08 06:49:03;;;;;;;8.83;7.93;;;19.40;99.90;;;;;;4993156;28;20231;-72
2023/09/08 06:51:28;;;;;;;9.97;7.60;;;19.50;99.90;;;;;;4993375;28;20719;-72
2023/09/08 06:53:57;;;;;;;8.50;7.70;;;19.70;99.90;;;;;;4993300;28;20415;-73
2023/09/08 06:56:23;;;;;;;9.13;7.83;;;19.80;99.90;;;;;;4992845;28;20227;-73
2023/09/08 06:58:49;;;;;;;8.27;7.57;;;19.90;99.90;;;;;;4992911;28;20420;-72
2023/09/08 07:01:15;;;;;;;8.80;8.00;;;20.00;99.90;;;;;;4991892;28;20171;-71
2023/09/08 07:03:40;;;;;;;8.60;7.90;;;20.10;99.90;;;;;;4993302;28;20177;-71
2023/09/08 07:06:06;;;;;;;9.27;8.37;;;20.20;99.90;;;;;;4993029;28;20408;-71
2023/09/08 07:08:31;;;;;;;9.27;8.20;;;20.30;99.90;;;;;;4993251;28;20376;-72
2023/09/08 07:10:57;;;;;;;9.40;8.50;;;20.50;99.90;;;;;;4993091;28;20183;-71
2023/09/08 07:13:23;;;;;;;8.97;8.13;;;20.60;99.90;;;;;;4993283;28;20615;-69
2023/09/08 07:15:48;;;;;;;8.10;7.40;;;20.70;99.90;;;;;;4993620;28;20546;-72
2023/09/08 07:18:14;;;;;;;10.20;9.30;;;20.80;99.90;;;;;;4993323;28;20283;-72
2023/09/08 07:20:39;;;;;;;11.17;10.07;;;20.90;99.90;;;;;;4992880;28;20651;-72
2023/09/08 07:23:06;;;;;;;9.73;8.73;;;20.70;99.90;;;;;;4993294;28;20599;-71
2023/09/08 07:25:31;;;;;;;10.47;9.30;;;20.80;99.90;;;;;;4993188;28;20185;-72
2023/09/08 07:27:57;;;;;;;11.33;10.23;;;20.90;99.90;;;;;;4992901;28;20849;-72
2023/09/08 07:30:22;;;;;;;10.83;9.73;;;20.80;99.90;;;;;;4992686;28;20185;-72
2023/09/08 07:32:48;;;;;;;11.83;9.43;;;20.60;99.90;;;;;;4992679;28;20200;-72
2023/09/08 07:35:15;;;;;;;12.23;9.40;;;20.50;99.90;;;;;;4992191;28;20601;-72
2023/09/08 07:37:41;;;;;;;13.23;9.20;;;20.60;99.90;;;;;;4992928;28;20255;-72
2023/09/08 07:40:10;;;;;;;11.53;9.73;;;20.70;99.90;;;;;;4992925;28;20420;-72
2023/09/08 07:42:36;;;;;;;11.97;9.77;;;20.80;99.90;;;;;;4991340;28;20556;-72
2023/09/08 07:45:02;;;;;;;10.50;9.40;;;21.00;99.90;;;;;;4992757;28;20400;-71
2023/09/08 07:47:27;;;;;;;13.23;9.53;;;21.10;99.90;;;;;;4995131;28;20188;-71
2023/09/08 07:50:23;;;;;;;13.20;9.40;;;21.20;99.90;;;;;;4996260;28;20264;-69
2023/09/08 07:52:50;;;;;;;10.03;9.03;;;21.10;99.90;;;;;;4996489;28;20231;-72
2023/09/08 07:55:16;;;;;;;10.30;9.30;;;20.90;99.90;;;;;;4996263;28;20451;-71
2023/09/08 07:57:43;;;;;;;12.33;11.07;;;21.00;99.90;;;;;;5009333;23;20801;-71
2023/09/08 08:00:12;;;;;;;12.60;9.30;;;21.00;99.90;;;;;;5005898;28;20406;-71
2023/09/08 08:02:45;;;;;;;10.20;9.20;;;21.10;99.90;;;;;;5013880;28;20391;-69
2023/09/08 08:05:10;;;;;;;9.37;8.10;;;21.20;99.90;;;;;;5012667;28;20407;-71
2023/09/08 08:07:36;;;;;;;10.70;8.60;;;21.30;99.90;;;;;;4994185;28;20423;-71
2023/09/08 08:10:01;;;;;;;10.10;9.10;;;21.40;99.90;;;;;;5003165;28;20191;-71
2023/09/08 08:12:27;;;;;;;9.63;8.67;;;21.50;99.90;;;;;;5013733;28;20186;-70
2023/09/08 08:14:52;;;;;;;11.17;9.00;;;21.50;99.90;;;;;;5013976;28;20562;-71
2023/09/08 08:17:19;;;;;;;10.00;9.00;;;21.70;99.90;;;;;;5013577;28;20573;-71
2023/09/08 08:19:45;;;;;;;9.07;8.27;;;21.80;99.90;;;;;;5006149;28;20173;-71
2023/09/08 08:22:11;;;;;;;9.97;8.97;;;21.90;99.90;;;;;;4993857;28;20423;-71
2023/09/08 08:24:36;;;;;;;9.47;8.57;;;22.20;99.90;;;;;;4994169;28;20192;-71
2023/09/08 08:27:02;;;;;;;9.63;8.73;;;22.30;99.90;;;;;;4993703;28;20544;-71
2023/09/08 08:29:29;;;;;;;10.80;9.67;;;22.30;99.90;;;;;;4999588;28;20183;-71
2023/09/08 08:31:54;;;;;;;11.67;8.97;;;22.30;99.90;;;;;;5013227;28;20907;-70
2023/09/08 08:34:20;;;;;;;12.67;10.17;;;22.40;99.90;;;;;;5011845;28;20419;-70
2023/09/08 08:36:45;;;;;;;11.30;9.30;;;22.50;99.90;;;;;;5012871;28;20223;-68
2023/09/08 08:39:11;;;;;;;10.30;9.30;;;22.50;99.90;;;;;;5010383;28;20231;-70
2023/09/08 08:41:39;;;;;;;9.97;8.80;;;22.50;99.90;;;;;;4993691;28;20161;-71
2023/09/08 08:44:06;;;;;;;11.67;9.80;;;22.60;99.90;;;;;;4994098;28;20164;-71
2023/09/08 08:46:34;;;;;;;10.33;9.23;;;22.70;99.90;;;;;;4992331;28;20768;-71
2023/09/08 08:49:03;;;;;;;10.03;9.13;;;22.90;99.90;;;;;;4994354;28;20431;-71
2023/09/08 08:51:30;;;;;;;9.67;8.67;;;22.90;99.90;;;;;;5013093;28;20407;-71
2023/09/08 08:53:57;;;;;;;10.17;9.27;;;23.00;99.90;;;;;;5013354;28;20469;-71
2023/09/08 08:56:23;;;;;;;10.40;9.40;;;23.00;99.90;;;;;;5013479;28;20434;-71
2023/09/08 08:58:52;;;;;;;10.87;9.70;;;23.00;99.90;;;;;;5012145;28;20457;-70
2023/09/08 09:01:19;;;;;;;12.50;9.33;;;23.10;99.90;;;;;;4974075;28;20198;-70
2023/09/08 09:03:48;;;;;;;9.20;8.30;;;23.20;99.90;;;;;;4973587;28;20408;-71
2023/09/08 09:06:14;;;;;;;11.93;10.23;;;23.40;99.90;;;;;;4974634;28;20412;-70
2023/09/08 09:08:43;;;;;;;9.63;8.13;;;23.60;99.90;;;;;;4973931;28;20780;-71
2023/09/08 09:11:09;;;;;;;9.67;8.77;;;23.60;99.90;;;;;;5010575;28;20411;-71
2023/09/08 09:13:34;;;;;;;13.13;9.53;;;23.70;99.90;;;;;;5008282;28;20749;-72
2023/09/08 09:16:03;;;;;;;9.83;8.70;;;23.80;99.90;;;;;;4985114;28;20553;-72
2023/09/08 09:18:31;;;;;;;10.47;9.47;;;24.00;99.90;;;;;;4984781;28;20654;-72
2023/09/08 09:20:59;;;;;;;10.20;9.27;;;24.20;99.90;;;;;;4985307;28;20404;-70
2023/09/08 09:23:33;;;;;;;9.63;8.73;;;24.10;99.90;;;;;;4985077;28;20412;-71
2023/09/08 09:26:00;;;;;;;9.70;8.63;;;24.10;99.90;;;;;;4985154;28;20412;-72
2023/09/08 09:28:28;;;;;;;10.97;9.37;;;24.30;99.90;;;;;;4985062;28;20529;-70
2023/09/08 09:30:56;;;;;;;15.77;9.27;;;24.30;99.90;;;;;;4984515;28;20455;-72
2023/09/08 09:33:22;;;;;;;12.13;9.20;;;24.40;99.90;;;;;;4984236;28;20599;-71
2023/09/08 09:35:51;;;;;;;10.17;8.80;;;24.60;99.90;;;;;;4985373;28;20457;-71
2023/09/08 09:38:18;;;;;;;10.07;9.20;;;24.80;99.90;;;;;;4984970;28;20504;-72
2023/09/08 09:40:45;;;;;;;9.40;8.40;;;24.90;99.90;;;;;;4985224;28;20491;-71
2023/09/08 09:43:11;;;;;;;12.13;9.00;;;24.90;99.90;;;;;;4985009;28;20435;-72
2023/09/08 09:45:38;;;;;;;9.57;8.67;;;25.00;99.90;;;;;;4985197;28;20438;-72
2023/09/08 09:48:04;;;;;;;8.40;7.53;;;25.00;99.90;;;;;;4984767;28;20431;-72
2023/09/08 09:50:41;;;;;;;8.73;7.83;;;25.00;99.90;;;;;;4983942;28;20426;-71
2023/09/08 09:53:11;;;;;;;9.23;8.30;;;25.00;99.90;;;;;;4989974;28;20585;-71
2023/09/08 09:55:41;;;;;;;12.00;8.63;;;25.00;99.90;;;;;;4993509;28;20505;-71
2023/09/08 09:58:08;;;;;;;8.87;7.97;;;25.10;99.90;;;;;;5009932;28;20443;-71
2023/09/08 10:00:35;;;;;;;9.60;8.70;;;25.20;99.90;;;;;;5006786;28;20760;-71
2023/09/08 10:03:02;;;;;;;8.50;7.70;;;25.40;99.90;;;;;;4984406;28;20427;-72
2023/09/08 10:05:28;;;;;;;10.40;7.87;;;25.70;99.90;;;;;;4986017;28;20893;-72
2023/09/08 10:07:54;;;;;;;8.10;7.30;;;25.90;99.90;;;;;;4992423;28;20435;-71
2023/09/08 10:10:21;;;;;;;8.10;7.40;;;26.10;99.90;;;;;;5011418;28;20180;-70
2023/09/08 10:12:54;;;;;;;9.20;8.40;;;26.00;99.90;;;;;;5011453;28;20534;-71
2023/09/08 10:15:22;;;;;;;8.90;8.10;;;26.00;99.90;;;;;;5000140;28;20484;-71
2023/09/08 10:17:57;;;;;;;11.90;9.63;;;26.00;99.90;;;;;;4991955;28;20427;-71
2023/09/08 10:20:26;;;;;;;8.93;8.03;;;26.10;99.90;;;;;;4992051;28;20380;-72
2023/09/08 10:23:28;;;;;;;8.87;8.00;;;26.30;99.90;;;;;;5007729;28;20409;-72
2023/09/08 10:25:59;;;;;;;8.30;7.50;;;26.60;99.90;;;;;;5011646;28;20911;-71
2023/09/08 10:28:25;;;;;;;8.07;7.30;;;26.40;99.90;;;;;;5011552;28;20447;-72
2023/09/08 10:30:52;;;;;;;8.10;7.30;;;26.30;99.90;;;;;;4996198;28;20411;-72
2023/09/08 10:33:19;;;;;;;10.63;7.73;;;26.50;99.90;;;;;;4990217;28;20427;-71
2023/09/08 10:35:45;;;;;;;9.43;8.53;;;26.90;99.90;;;;;;4984003;28;21036;-71
2023/09/08 10:38:24;;;;;;;9.07;8.17;;;27.10;99.90;;;;;;4982987;28;20428;-72
2023/09/08 10:40:50;;;;;;;7.90;7.30;;;27.10;99.90;;;;;;4984292;28;20403;-72
2023/09/08 10:43:15;;;;;;;7.67;7.07;;;27.10;99.90;;;;;;4984681;28;20435;-71
2023/09/08 10:45:41;;;;;;;7.53;7.03;;;27.60;99.90;;;;;;4982609;28;20433;-72
2023/09/08 10:48:07;;;;;;;8.47;7.67;;;28.00;99.90;;;;;;4984205;28;20212;-71
2023/09/08 10:50:35;;;;;;;7.47;6.87;;;29.10;99.90;;;;;;4984405;28;20195;-72
2023/09/08 10:53:10;;;;;;;6.40;5.80;;;30.10;98.60;;;;;;4985162;28;20424;-71
2023/09/08 10:55:47;;;;;;;7.10;6.43;;;31.10;97.40;;;;;;4985109;28;20455;-72
2023/09/08 10:58:28;;;;;;;7.97;6.33;;;33.20;93.60;;;;;;4983989;28;20554;-71
2023/09/08 11:00:59;;;;;;;6.53;5.93;;;33.70;91.10;;;;;;4999444;28;20478;-71
2023/09/08 11:03:44;;;;;;;7.20;6.50;;;34.90;87.40;;;;;;4984816;28;20458;-71
2023/09/08 11:06:11;;;;;;;8.10;6.93;;;35.40;81.90;;;;;;4984069;28;20446;-72
2023/09/08 11:08:42;;;;;;;7.17;6.30;;;35.40;79.10;;;;;;4985347;28;20431;-72
2023/09/08 11:11:10;;;;;;;6.47;5.97;;;35.00;79.70;;;;;;4984798;28;20767;-72
2023/09/08 11:13:35;;;;;;;7.30;6.03;;;35.20;77.40;;;;;;4985828;28;20403;-71
2023/09/08 11:16:02;;;;;;;7.87;6.00;;;34.50;79.30;;;;;;4984742;28;20799;-72
2023/09/08 11:18:33;;;;;;;7.73;7.03;;;34.30;79.40;;;;;;4983449;28;20266;-70
2023/09/08 11:21:00;;;;;;;8.50;6.90;;;35.20;77.00;;;;;;4984737;28;20512;-70
2023/09/08 11:23:26;;;;;;;7.27;6.57;;;36.30;74.50;;;;;;4989138;28;20446;-71
2023/09/08 11:25:53;;;;;;;7.53;6.73;;;37.20;71.60;;;;;;4988756;28;20424;-72
2023/09/08 11:28:23;;;;;;;7.17;6.47;;;38.30;68.80;;;;;;4990149;28;20491;-73
2023/09/08 11:30:50;;;;;;;6.53;6.03;;;38.40;65.50;;;;;;4988186;28;20463;-72
2023/09/08 11:33:26;;;;;;;6.83;6.13;;;37.10;67.00;;;;;;4989583;28;20411;-72
2023/09/08 11:35:54;;;;;;;6.53;6.00;;;36.70;68.70;;;;;;4993430;28;20475;-72
2023/09/08 11:38:28;;;;;;;8.47;6.90;;;38.60;65.00;;;;;;4996998;28;20423;-70
2023/09/08 11:40:57;;;;;;;6.17;5.67;;;37.50;64.60;;;;;;5014409;28;20411;-72
2023/09/08 11:43:22;;;;;;;6.97;6.33;;;37.60;65.90;;;;;;5014439;28;20472;-71
2023/09/08 11:45:48;;;;;;;6.13;5.60;;;37.50;64.20;;;;;;5008602;28;20526;-71
2023/09/08 11:48:15;;;;;;;7.20;6.50;;;38.90;65.20;;;;;;4995158;28;20254;-72
2023/09/08 11:50:44;;;;;;;5.90;5.40;;;39.70;60.40;;;;;;5004186;28;20263;-71
2023/09/08 11:53:10;;;;;;;6.87;6.30;;;40.10;58.00;;;;;;4994722;28;20411;-71
2023/09/08 11:55:36;;;;;;;7.03;6.30;;;37.40;61.40;;;;;;4994669;28;20872;-71
2023/09/08 11:58:03;;;;;;;7.07;6.50;;;36.00;65.10;;;;;;5008249;28;20235;-71
2023/09/08 12:00:29;;;;;;;6.73;6.20;;;36.10;65.90;;;;;;4994541;28;20416;-71
2023/09/08 12:02:55;;;;;;;7.40;6.10;;;37.60;62.10;;;;;;4992541;28;20420;-71
2023/09/08 12:05:23;;;;;;;6.67;6.17;;;38.60;61.50;;;;;;4993813;28;20495;-71
2023/09/08 12:07:56;;;;;;;7.77;7.07;;;38.20;59.90;;;;;;4994155;28;20420;-71
2023/09/08 12:10:25;;;;;;;7.33;6.73;;;38.50;59.20;;;;;;5012087;28;20425;-71
2023/09/08 12:12:58;;;;;;;7.10;6.50;;;37.70;62.40;;;;;;5013807;28;20406;-72
2023/09/08 12:15:34;;;;;;;7.10;6.50;;;38.50;60.60;;;;;;5012881;28;21086;-72
2023/09/08 12:18:05;;;;;;;8.60;7.70;;;39.10;58.80;;;;;;4994653;28;20419;-72
2023/09/08 12:20:31;;;;;;;7.00;6.40;;;38.10;58.20;;;;;;5013042;28;20470;-72
2023/09/08 12:23:03;;;;;;;7.10;6.60;;;36.10;64.20;;;;;;5014096;28;20398;-72
2023/09/08 12:25:31;;;;;;;6.50;6.10;;;36.20;62.90;;;;;;5013837;28;20870;-72
2023/09/08 12:27:57;;;;;;;7.63;7.00;;;37.10;61.10;;;;;;5013913;28;20493;-72
2023/09/08 12:30:32;;;;;;;6.80;6.20;;;35.60;63.90;;;;;;5013645;28;20417;-72
2023/09/08 12:33:00;;;;;;;7.30;6.63;;;36.70;62.90;;;;;;5013426;28;20387;-72
2023/09/08 12:35:26;;;;;;;6.97;6.37;;;36.90;60.40;;;;;;5011696;28;20482;-72
2023/09/08 12:37:56;;;;;;;7.20;6.50;;;35.70;63.70;;;;;;5013368;28;20431;-72
2023/09/08 12:40:22;;;;;;;7.13;5.87;;;35.80;62.60;;;;;;5012058;28;20403;-72
2023/09/08 12:42:48;;;;;;;6.30;5.80;;;36.90;60.70;;;;;;5013295;28;20742;-72
2023/09/08 12:45:13;;;;;;;6.83;6.23;;;37.70;59.00;;;;;;5013009;28;20171;-73